Time;durP1;ratioP1;P1;durP2;ratioP2;P2;SDS_P1;SDS_P2;PMS_P1;PMS_P2;Temp;Humidity;BMP_temperature;BMP_pressure;BME280_temperature;BME280_humidity;BME280_pressure;Samples;Min_cycle;Max_cycle;Signal;HPM_P1;HPM_P2
2022/08/26 00:00:33;;;;;;;30.83;27.63;;;21.20;99.90;;;;;;5095579;28;20052;-88
2022/08/26 00:02:59;;;;;;;32.42;29.02;;;21.10;99.90;;;;;;5078661;28;20040;-89
2022/08/26 00:05:24;;;;;;;37.75;29.48;;;21.10;99.90;;;;;;5077754;28;20474;-89
2022/08/26 00:07:50;;;;;;;38.30;30.02;;;21.10;99.90;;;;;;5062422;28;20079;-90
2022/08/26 00:10:16;;;;;;;35.05;31.25;;;21.10;99.90;;;;;;5078584;28;20085;-89
2022/08/26 00:12:42;;;;;;;38.28;32.00;;;21.10;99.90;;;;;;5045070;28;20047;-90
2022/08/26 00:15:09;;;;;;;35.13;31.27;;;21.10;99.90;;;;;;5061415;28;20051;-88
2022/08/26 00:17:35;;;;;;;38.03;32.47;;;21.10;99.90;;;;;;5095035;28;20047;-89
2022/08/26 00:20:01;;;;;;;37.88;31.55;;;21.00;99.90;;;;;;5078002;28;20044;-89
2022/08/26 00:22:27;;;;;;;36.60;32.58;;;21.00;99.90;;;;;;5095072;28;20518;-89
2022/08/26 00:24:53;;;;;;;37.92;33.92;;;20.90;99.90;;;;;;5061785;28;20113;-89
2022/08/26 00:27:18;;;;;;;39.60;35.53;;;20.90;99.90;;;;;;5078015;28;20131;-90
2022/08/26 00:29:44;;;;;;;40.55;36.28;;;20.80;99.90;;;;;;5078351;28;20486;-89
2022/08/26 00:32:11;;;;;;;39.35;35.10;;;20.80;99.90;;;;;;5077762;28;20493;-89
2022/08/26 00:34:37;;;;;;;43.17;37.08;;;20.70;99.90;;;;;;5095318;28;20551;-90
2022/08/26 00:37:03;;;;;;;42.63;37.25;;;20.70;99.90;;;;;;5061434;28;20048;-90
2022/08/26 00:39:28;;;;;;;42.03;37.50;;;20.70;99.90;;;;;;5061402;28;20541;-90
2022/08/26 00:41:54;;;;;;;42.65;38.15;;;20.70;99.90;;;;;;5061533;28;20057;-88
2022/08/26 00:44:20;;;;;;;45.75;39.42;;;20.60;99.90;;;;;;5080364;28;20044;-89
2022/08/26 00:46:49;;;;;;;48.63;40.58;;;20.60;99.90;;;;;;5084844;28;20078;-90
2022/08/26 00:49:18;;;;;;;42.58;37.72;;;20.50;99.90;;;;;;5080066;28;20058;-89
2022/08/26 00:51:49;;;;;;;47.67;41.75;;;20.50;99.90;;;;;;5070952;28;20040;-90
2022/08/26 00:54:15;;;;;;;46.67;39.47;;;20.40;99.90;;;;;;5084167;28;20107;-89
2022/08/26 00:56:54;;;;;;;47.83;41.88;;;20.40;99.90;;;;;;5063477;28;20103;-89
2022/08/26 00:59:20;;;;;;;50.50;42.53;;;20.40;99.90;;;;;;5065067;28;20047;-89
2022/08/26 01:01:46;;;;;;;50.25;43.13;;;20.40;99.90;;;;;;5061517;28;20054;-90
2022/08/26 01:04:13;;;;;;;52.80;42.03;;;20.30;99.90;;;;;;5094989;28;20047;-90
2022/08/26 01:06:39;;;;;;;48.28;42.15;;;20.30;99.90;;;;;;5061992;28;20142;-90
2022/08/26 01:09:05;;;;;;;54.22;44.10;;;20.30;99.90;;;;;;5062619;28;20126;-90
2022/08/26 01:11:31;;;;;;;56.05;43.42;;;20.40;99.90;;;;;;5044899;28;20132;-89
2022/08/26 01:13:57;;;;;;;51.70;43.35;;;20.30;99.90;;;;;;5060669;28;20076;-88
2022/08/26 01:16:26;;;;;;;59.20;43.17;;;20.20;99.90;;;;;;5059854;28;20515;-91
2022/08/26 01:18:57;;;;;;;56.30;43.28;;;20.30;99.90;;;;;;5077117;28;20372;-89
2022/08/26 01:21:45;;;;;;;54.83;43.25;;;20.30;99.90;;;;;;5076644;28;20383;-88
2022/08/26 01:24:11;;;;;;;51.63;40.92;;;20.30;99.90;;;;;;5061648;28;20048;-90
2022/08/26 01:26:40;;;;;;;50.92;41.42;;;20.20;99.90;;;;;;5094002;28;20047;-89
2022/08/26 01:29:06;;;;;;;53.15;42.03;;;20.20;99.90;;;;;;5077437;28;20505;-89
2022/08/26 01:31:40;;;;;;;55.15;41.88;;;20.10;99.90;;;;;;5076896;28;20051;-90
2022/08/26 01:34:38;;;;;;;50.33;42.17;;;20.20;99.90;;;;;;5060439;28;20051;-89
2022/08/26 01:37:25;;;;;;;58.85;41.90;;;20.10;99.90;;;;;;5092971;28;20056;-90
2022/08/26 01:39:52;;;;;;;54.22;41.00;;;20.10;99.90;;;;;;5074682;28;20102;-89
2022/08/26 01:42:20;;;;;;;56.10;41.95;;;20.10;99.90;;;;;;5073240;28;20074;-90
2022/08/26 01:44:55;;;;;;;53.10;36.58;;;20.20;99.90;;;;;;5073283;28;20059;-88
2022/08/26 01:47:21;;;;;;;52.35;39.08;;;20.20;99.90;;;;;;5073713;28;20500;-88
2022/08/26 01:49:48;;;;;;;52.92;39.65;;;20.20;99.90;;;;;;5056174;28;20053;-89
2022/08/26 01:52:17;;;;;;;50.60;39.55;;;20.20;99.90;;;;;;5056386;28;20040;-89
2022/08/26 01:54:43;;;;;;;52.47;38.40;;;20.30;99.90;;;;;;5057284;28;20575;-89
2022/08/26 01:57:08;;;;;;;55.20;37.60;;;20.30;99.90;;;;;;5040076;28;20127;-90
2022/08/26 01:59:34;;;;;;;48.47;35.03;;;20.30;99.90;;;;;;5047947;28;20048;-89
2022/08/26 02:02:00;;;;;;;51.47;36.80;;;20.40;99.90;;;;;;5056712;28;20040;-89
2022/08/26 02:04:36;;;;;;;47.40;35.45;;;20.40;99.90;;;;;;5056733;28;20588;-90
2022/08/26 02:07:03;;;;;;;49.85;34.40;;;20.40;99.90;;;;;;5041317;28;20161;-90
2022/08/26 02:09:29;;;;;;;45.65;33.60;;;20.40;99.90;;;;;;5073091;28;20051;-89
2022/08/26 02:11:54;;;;;;;46.80;34.45;;;20.50;99.90;;;;;;5073310;28;20044;-91
2022/08/26 02:14:25;;;;;;;44.92;35.08;;;20.40;99.90;;;;;;5039715;28;20044;-90
2022/08/26 02:16:51;;;;;;;43.25;33.58;;;20.40;99.90;;;;;;5073396;28;20196;-90
2022/08/26 02:19:23;;;;;;;44.28;33.72;;;20.40;99.90;;;;;;5056360;28;20056;-89
2022/08/26 02:21:49;;;;;;;48.10;32.53;;;20.40;99.90;;;;;;5040755;28;20403;-89
2022/08/26 02:24:17;;;;;;;46.22;31.70;;;20.40;99.90;;;;;;5073335;28;20056;-89
2022/08/26 02:26:43;;;;;;;44.50;32.28;;;20.50;99.90;;;;;;5075670;28;20052;-88
2022/08/26 02:29:15;;;;;;;43.25;31.98;;;20.50;99.90;;;;;;5046209;28;20578;-90
2022/08/26 02:31:40;;;;;;;40.25;29.23;;;20.50;99.90;;;;;;5061084;28;20394;-90
2022/08/26 02:34:14;;;;;;;43.60;31.30;;;20.50;99.90;;;;;;5093675;28;20048;-90
2022/08/26 02:36:40;;;;;;;42.42;30.73;;;20.40;99.90;;;;;;5094028;28;20040;-90
2022/08/26 02:39:06;;;;;;;47.72;29.70;;;20.50;99.90;;;;;;5076659;28;20083;-90
2022/08/26 02:41:32;;;;;;;45.17;30.35;;;20.40;99.90;;;;;;5093325;28;20109;-89
2022/08/26 02:43:58;;;;;;;44.95;31.45;;;20.40;99.90;;;;;;5043152;28;20052;-88
2022/08/26 02:46:24;;;;;;;43.30;31.45;;;20.40;99.90;;;;;;5076407;28;20044;-90
2022/08/26 02:48:49;;;;;;;43.30;32.90;;;20.40;99.90;;;;;;5059742;28;20032;-90
2022/08/26 02:51:15;;;;;;;48.65;33.03;;;20.40;99.90;;;;;;5093516;28;20044;-90
2022/08/26 02:53:41;;;;;;;40.63;30.90;;;20.40;99.90;;;;;;5076629;28;20040;-90
2022/08/26 02:56:07;;;;;;;42.53;32.03;;;20.40;99.90;;;;;;5076496;28;20051;-89
2022/08/26 02:58:33;;;;;;;43.65;31.08;;;20.40;99.90;;;;;;5076611;28;20051;-89
2022/08/26 03:00:58;;;;;;;48.28;34.22;;;20.40;99.90;;;;;;5060030;28;20048;-89
2022/08/26 03:03:24;;;;;;;53.72;33.78;;;20.40;99.90;;;;;;5059422;28;20059;-90
2022/08/26 03:05:51;;;;;;;37.53;28.55;;;20.40;99.90;;;;;;5093659;28;20048;-89
2022/08/26 03:08:16;;;;;;;43.53;32.63;;;20.40;99.90;;;;;;5059801;28;20052;-90
2022/08/26 03:10:42;;;;;;;46.05;32.75;;;20.50;99.90;;;;;;5059834;28;20044;-91
2022/08/26 03:13:08;;;;;;;41.83;32.40;;;20.50;99.90;;;;;;5093517;28;20539;-90
2022/08/26 03:15:33;;;;;;;45.95;33.72;;;20.50;99.90;;;;;;5093424;28;20121;-89
2022/08/26 03:17:59;;;;;;;39.92;30.45;;;20.50;99.90;;;;;;5060016;28;20401;-88
2022/08/26 03:20:25;;;;;;;50.42;32.63;;;20.50;99.90;;;;;;5076324;28;20483;-89
2022/08/26 03:22:52;;;;;;;42.22;32.65;;;20.50;99.90;;;;;;5093358;28;20050;-90
2022/08/26 03:25:18;;;;;;;35.17;27.80;;;20.40;99.90;;;;;;5076456;28;20048;-89
2022/08/26 03:27:43;;;;;;;51.65;32.85;;;20.50;99.90;;;;;;5075767;28;20130;-89
2022/08/26 03:32:54;;;;;;;42.00;31.95;;;20.50;99.90;;;;;;5064234;28;20091;-89
2022/08/26 03:35:20;;;;;;;39.28;31.08;;;20.50;99.90;;;;;;5093458;28;20083;-89
2022/08/26 03:37:45;;;;;;;41.63;30.70;;;20.60;99.90;;;;;;5075678;28;20040;-90
2022/08/26 03:40:11;;;;;;;41.65;27.20;;;20.60;99.90;;;;;;5075845;28;20052;-91
2022/08/26 03:42:38;;;;;;;41.22;30.75;;;20.50;99.90;;;;;;5075702;28;20472;-89
2022/08/26 03:45:05;;;;;;;40.38;29.88;;;20.60;99.90;;;;;;5059496;28;20048;-90
2022/08/26 03:47:30;;;;;;;47.42;31.35;;;20.50;99.90;;;;;;5059538;28;20044;-89
2022/08/26 03:49:56;;;;;;;41.35;30.10;;;20.50;99.90;;;;;;5079794;28;20135;-89
2022/08/26 03:52:22;;;;;;;42.33;29.13;;;20.50;99.90;;;;;;5090448;28;20043;-89
2022/08/26 03:54:48;;;;;;;43.22;29.13;;;20.60;99.90;;;;;;5070230;28;20099;-89
2022/08/26 03:57:14;;;;;;;46.78;30.83;;;20.60;99.90;;;;;;5095947;28;20048;-90
2022/08/26 03:59:39;;;;;;;43.30;29.33;;;20.60;99.90;;;;;;5087926;28;20059;-89
2022/08/26 04:02:05;;;;;;;43.95;28.77;;;20.50;99.90;;;;;;5066855;28;20181;-90
2022/08/26 04:04:31;;;;;;;40.03;27.52;;;20.50;99.90;;;;;;5093271;28;20048;-90
2022/08/26 04:06:57;;;;;;;43.67;28.13;;;20.50;99.90;;;;;;5076554;28;20484;-89
2022/08/26 04:09:23;;;;;;;37.42;27.00;;;20.60;99.90;;;;;;5042937;28;20104;-88
2022/08/26 04:11:48;;;;;;;38.35;25.38;;;20.60;99.90;;;;;;5043381;28;20048;-90
2022/08/26 04:14:16;;;;;;;41.22;26.38;;;20.60;99.90;;;;;;5076419;28;20106;-90
2022/08/26 04:16:42;;;;;;;41.08;25.77;;;20.60;99.90;;;;;;5075809;28;20051;-90
2022/08/26 04:19:08;;;;;;;39.65;23.88;;;20.60;99.90;;;;;;5075258;28;20380;-89
2022/08/26 04:21:34;;;;;;;36.60;23.85;;;20.50;99.90;;;;;;5091287;28;20063;-88
2022/08/26 04:24:00;;;;;;;39.45;25.17;;;20.60;99.90;;;;;;5058486;28;20052;-90
2022/08/26 04:26:26;;;;;;;41.08;25.52;;;20.50;99.90;;;;;;5058277;28;20052;-89
2022/08/26 04:28:52;;;;;;;39.90;23.48;;;20.50;99.90;;;;;;5058105;28;20044;-89
2022/08/26 04:31:18;;;;;;;37.42;23.23;;;20.60;99.90;;;;;;5058265;28;20036;-90
2022/08/26 04:33:44;;;;;;;32.90;23.00;;;20.60;99.90;;;;;;5091262;28;20040;-90
2022/08/26 04:36:10;;;;;;;36.78;22.95;;;20.60;99.90;;;;;;5075744;28;20052;-90
2022/08/26 04:38:36;;;;;;;32.53;21.98;;;20.60;99.90;;;;;;5041506;28;20082;-89
2022/08/26 04:41:02;;;;;;;33.60;22.23;;;20.60;99.90;;;;;;5087494;28;20073;-89
2022/08/26 04:43:29;;;;;;;30.30;21.15;;;20.60;99.90;;;;;;5081636;28;20059;-88
2022/08/26 04:45:57;;;;;;;39.40;22.13;;;20.60;99.90;;;;;;5098195;28;20048;-88
2022/08/26 04:48:23;;;;;;;30.95;21.40;;;20.60;99.90;;;;;;5082356;28;20059;-89
2022/08/26 04:50:50;;;;;;;32.92;21.13;;;20.60;99.90;;;;;;5074632;28;20043;-90
2022/08/26 04:53:15;;;;;;;32.80;20.95;;;20.60;99.90;;;;;;5100414;28;20094;-88
2022/08/26 04:55:41;;;;;;;31.92;19.60;;;20.60;99.90;;;;;;5080802;28;20050;-87
2022/08/26 04:58:09;;;;;;;29.27;19.23;;;20.60;99.90;;;;;;5082141;28;20075;-88
2022/08/26 05:00:35;;;;;;;28.88;19.52;;;20.70;99.90;;;;;;5062229;28;20395;-89
2022/08/26 05:03:01;;;;;;;25.20;18.42;;;20.70;99.90;;;;;;5057707;28;20043;-89
2022/08/26 05:05:30;;;;;;;25.55;18.83;;;20.70;99.90;;;;;;5091440;28;20471;-89
2022/08/26 05:07:56;;;;;;;28.13;19.80;;;20.70;99.90;;;;;;5075528;28;20232;-90
2022/08/26 05:10:22;;;;;;;32.28;19.23;;;20.70;99.90;;;;;;5076954;28;20089;-89
2022/08/26 05:12:48;;;;;;;31.25;19.00;;;20.70;99.90;;;;;;5060191;28;20048;-90
2022/08/26 05:15:14;;;;;;;34.83;20.35;;;20.70;99.90;;;;;;5075937;28;20044;-89
2022/08/26 05:17:39;;;;;;;28.30;19.58;;;20.70;99.90;;;;;;5092515;28;20129;-89
2022/08/26 05:20:05;;;;;;;26.15;20.67;;;20.60;99.90;;;;;;5093669;28;20472;-89
2022/08/26 05:22:31;;;;;;;31.83;19.48;;;20.70;99.90;;;;;;5077723;28;20078;-89
2022/08/26 05:24:57;;;;;;;32.75;19.73;;;20.70;99.90;;;;;;5062369;28;20101;-89
2022/08/26 05:27:22;;;;;;;26.40;20.38;;;20.70;99.90;;;;;;5086108;28;20058;-89
2022/08/26 05:29:48;;;;;;;28.73;20.15;;;20.80;99.90;;;;;;5090589;28;20074;-88
2022/08/26 05:32:14;;;;;;;29.30;19.73;;;20.80;99.90;;;;;;5089775;28;20040;-88
2022/08/26 05:34:39;;;;;;;28.77;20.40;;;20.70;99.90;;;;;;5089354;28;20518;-89
2022/08/26 05:37:05;;;;;;;29.02;20.13;;;20.80;99.90;;;;;;5070917;28;20101;-89
2022/08/26 05:39:32;;;;;;;29.88;20.10;;;20.70;99.90;;;;;;5087221;28;20133;-89
2022/08/26 05:41:57;;;;;;;32.17;19.90;;;20.70;99.90;;;;;;5066343;28;20052;-90
2022/08/26 05:44:23;;;;;;;30.13;21.05;;;20.70;99.90;;;;;;5078978;28;20100;-89
2022/08/26 05:46:49;;;;;;;31.60;21.70;;;20.80;99.90;;;;;;5077455;28;20396;-89
2022/08/26 05:49:15;;;;;;;29.52;20.00;;;20.90;99.90;;;;;;5075704;28;20048;-89
2022/08/26 05:51:44;;;;;;;29.42;20.92;;;20.80;99.90;;;;;;5076819;28;20496;-88
2022/08/26 05:54:10;;;;;;;35.75;21.35;;;20.80;99.90;;;;;;5063889;28;20047;-88
2022/08/26 05:56:35;;;;;;;28.27;19.48;;;20.80;99.90;;;;;;5063086;28;20036;-89
2022/08/26 05:59:01;;;;;;;30.40;20.50;;;20.80;99.90;;;;;;5077147;28;20075;-89
2022/08/26 06:01:27;;;;;;;30.35;20.33;;;20.80;99.90;;;;;;5069291;28;20046;-90
2022/08/26 06:03:58;;;;;;;26.48;19.55;;;20.80;99.90;;;;;;5074360;28;20044;-90
2022/08/26 06:06:26;;;;;;;28.02;19.42;;;20.90;99.90;;;;;;5058960;28;20066;-88
2022/08/26 06:08:52;;;;;;;28.75;19.30;;;20.90;99.90;;;;;;5073221;28;20074;-89
2022/08/26 06:11:20;;;;;;;30.00;16.70;;;20.90;99.90;;;;;;5071850;28;20048;-90
2022/08/26 06:13:46;;;;;;;26.00;17.58;;;20.90;99.90;;;;;;5084067;28;20384;-89
2022/08/26 06:16:14;;;;;;;27.98;17.08;;;20.90;99.90;;;;;;5046949;28;20050;-89
2022/08/26 06:18:41;;;;;;;26.42;17.42;;;20.90;99.90;;;;;;5061653;28;20134;-90
2022/08/26 06:21:28;;;;;;;24.98;16.15;;;20.80;99.90;;;;;;5060927;28;20058;-88
2022/08/26 06:26:40;;;;;;;28.85;16.65;;;20.90;99.90;;;;;;5080224;28;20079;-89
2022/08/26 06:29:06;;;;;;;29.80;17.45;;;20.90;99.90;;;;;;5077279;28;20131;-88
2022/08/26 06:31:33;;;;;;;24.52;15.68;;;20.90;99.90;;;;;;5077373;28;20460;-89
2022/08/26 06:33:58;;;;;;;24.63;16.17;;;20.90;99.90;;;;;;5043942;28;20063;-89
2022/08/26 06:36:26;;;;;;;28.77;16.48;;;21.00;99.90;;;;;;5077052;28;20056;-89
2022/08/26 06:38:52;;;;;;;27.20;17.38;;;21.00;99.90;;;;;;5093407;28;20097;-90
2022/08/26 06:41:19;;;;;;;23.83;16.58;;;21.00;99.90;;;;;;5060356;28;20499;-89
2022/08/26 06:43:46;;;;;;;24.63;15.90;;;21.10;99.90;;;;;;5077153;28;20407;-87
2022/08/26 06:46:12;;;;;;;27.17;17.30;;;21.20;99.90;;;;;;5077320;28;20048;-88
2022/08/26 06:48:38;;;;;;;26.25;16.35;;;21.20;99.90;;;;;;5060245;28;20503;-90
2022/08/26 06:51:08;;;;;;;25.23;15.10;;;21.30;99.90;;;;;;5080732;28;20131;-90
2022/08/26 06:53:35;;;;;;;26.58;15.82;;;21.40;99.90;;;;;;5076437;28;20104;-88
2022/08/26 06:56:05;;;;;;;23.45;15.13;;;21.50;99.90;;;;;;5057136;28;20028;-88
2022/08/26 06:58:32;;;;;;;30.40;14.77;;;21.40;99.90;;;;;;5073443;28;20062;-88
2022/08/26 07:00:57;;;;;;;25.50;14.20;;;21.40;99.90;;;;;;5099010;28;20051;-89
2022/08/26 07:03:23;;;;;;;34.10;13.98;;;21.40;99.90;;;;;;5088330;28;20044;-88
2022/08/26 07:05:49;;;;;;;21.45;12.95;;;21.40;99.90;;;;;;5101604;28;20105;-87
2022/08/26 07:08:15;;;;;;;23.20;12.63;;;21.40;99.90;;;;;;5061239;28;20048;-90
2022/08/26 07:10:41;;;;;;;19.48;11.93;;;21.40;99.90;;;;;;5060294;28;20052;-88
2022/08/26 07:13:07;;;;;;;22.90;11.60;;;21.40;99.90;;;;;;5093248;28;20103;-89
2022/08/26 07:15:34;;;;;;;21.75;11.73;;;21.50;99.90;;;;;;5060523;28;20078;-89
2022/08/26 07:18:01;;;;;;;22.40;12.70;;;21.50;99.90;;;;;;5077522;28;20570;-89
2022/08/26 07:20:27;;;;;;;22.20;11.60;;;21.60;99.90;;;;;;5060269;28;20051;-89
2022/08/26 07:22:52;;;;;;;19.92;10.95;;;21.60;99.90;;;;;;5075835;28;20040;-89
2022/08/26 07:25:18;;;;;;;18.75;10.75;;;21.70;99.90;;;;;;5076712;28;20039;-90
2022/08/26 07:27:44;;;;;;;18.48;11.10;;;21.80;99.90;;;;;;5042939;28;20044;-90
2022/08/26 07:30:10;;;;;;;20.10;12.05;;;21.80;99.90;;;;;;5092770;28;20092;-90
2022/08/26 07:32:36;;;;;;;22.55;11.77;;;22.00;99.90;;;;;;5058970;28;20044;-87
2022/08/26 07:35:09;;;;;;;19.45;10.57;;;22.10;99.90;;;;;;5075539;28;20048;-87
2022/08/26 07:37:42;;;;;;;19.23;10.70;;;22.70;99.90;;;;;;5059192;28;20044;-87
2022/08/26 07:40:10;;;;;;;20.70;11.80;;;22.20;99.90;;;;;;5074658;28;20052;-88
2022/08/26 07:42:41;;;;;;;16.77;9.98;;;22.40;99.90;;;;;;5059840;28;20403;-86
2022/08/26 07:45:07;;;;;;;20.02;10.75;;;21.40;99.90;;;;;;5042545;28;20052;-86
2022/08/26 07:47:33;;;;;;;17.63;9.80;;;22.30;99.90;;;;;;5041719;28;20502;-84
2022/08/26 07:49:58;;;;;;;16.52;9.35;;;22.40;99.90;;;;;;5074456;28;20036;-84
2022/08/26 07:52:26;;;;;;;16.80;8.85;;;22.30;99.90;;;;;;5058204;28;20069;-84
2022/08/26 07:54:51;;;;;;;14.90;8.52;;;22.30;99.90;;;;;;5074897;28;20070;-84
2022/08/26 07:57:17;;;;;;;14.13;8.10;;;22.20;99.90;;;;;;5057952;28;20047;-83
2022/08/26 07:59:42;;;;;;;16.23;8.43;;;22.30;99.90;;;;;;5091832;28;20484;-84
2022/08/26 08:02:08;;;;;;;16.90;8.60;;;22.30;99.90;;;;;;5057400;28;20372;-85
2022/08/26 08:04:34;;;;;;;14.82;8.45;;;22.30;99.90;;;;;;5056607;28;20454;-84
2022/08/26 08:06:59;;;;;;;13.93;8.45;;;22.40;99.90;;;;;;5090801;28;20130;-84
2022/08/26 08:09:25;;;;;;;17.98;8.52;;;22.40;99.90;;;;;;5074863;28;20044;-83
2022/08/26 08:11:51;;;;;;;16.67;8.93;;;22.50;99.90;;;;;;5057783;28;20190;-84
2022/08/26 08:14:18;;;;;;;17.73;8.82;;;22.50;99.90;;;;;;5057596;28;20051;-84
2022/08/26 08:16:44;;;;;;;16.13;8.80;;;22.60;99.90;;;;;;5041779;28;20048;-84
2022/08/26 08:19:09;;;;;;;16.33;8.90;;;22.70;99.90;;;;;;5073536;28;20047;-83
2022/08/26 08:21:35;;;;;;;14.38;9.02;;;22.40;99.90;;;;;;5056474;28;20124;-85
2022/08/26 08:24:01;;;;;;;17.88;8.10;;;22.30;99.90;;;;;;5056935;28;20480;-83
2022/08/26 08:26:27;;;;;;;18.40;7.97;;;22.30;99.90;;;;;;5089982;28;20048;-82
2022/08/26 08:28:56;;;;;;;11.82;7.25;;;22.50;99.90;;;;;;5055778;28;20040;-83
2022/08/26 08:31:26;;;;;;;16.73;7.20;;;22.70;99.90;;;;;;5040672;28;20123;-83
2022/08/26 08:33:52;;;;;;;14.50;7.18;;;22.80;99.90;;;;;;5074331;28;20479;-84
2022/08/26 08:36:18;;;;;;;13.50;6.70;;;23.00;99.90;;;;;;5056635;28;20126;-82
2022/08/26 08:38:43;;;;;;;14.13;6.90;;;23.10;99.90;;;;;;5057102;28;20165;-83
2022/08/26 08:41:21;;;;;;;16.77;6.68;;;23.20;99.90;;;;;;5090190;28;20056;-82
2022/08/26 08:43:47;;;;;;;10.85;6.40;;;23.40;99.90;;;;;;5074634;28;20052;-83
2022/08/26 08:46:14;;;;;;;10.20;6.07;;;23.80;99.90;;;;;;5056756;28;20154;-84
2022/08/26 08:48:42;;;;;;;13.23;6.80;;;23.70;99.90;;;;;;5057295;28;20052;-89
2022/08/26 08:51:35;;;;;;;12.38;5.32;;;23.60;99.90;;;;;;5057126;28;20048;-83
2022/08/26 08:54:01;;;;;;;10.05;5.60;;;23.60;99.90;;;;;;5090873;28;20398;-83
2022/08/26 08:56:36;;;;;;;9.07;4.88;;;24.40;99.90;;;;;;5057518;28;20048;-89
2022/08/26 08:59:11;;;;;;;10.02;5.07;;;24.40;99.90;;;;;;5094339;28;20097;-83
2022/08/26 09:02:02;;;;;;;12.50;4.57;;;23.80;99.90;;;;;;5091679;28;20045;-84
2022/08/26 09:04:47;;;;;;;10.20;3.72;;;23.90;99.90;;;;;;5090658;28;20407;-83
2022/08/26 09:07:17;;;;;;;6.32;3.65;;;23.60;99.90;;;;;;5090123;28;20412;-82
2022/08/26 09:10:05;;;;;;;7.40;3.42;;;23.30;99.90;;;;;;5040469;28;20052;-83
2022/08/26 09:12:31;;;;;;;10.25;3.30;;;23.10;99.90;;;;;;5059948;28;20044;-83
2022/08/26 09:15:16;;;;;;;10.27;3.65;;;22.80;99.90;;;;;;5056630;28;20429;-83
2022/08/26 09:17:42;;;;;;;11.65;3.03;;;22.80;99.90;;;;;;5073673;28;20060;-84
2022/08/26 09:20:34;;;;;;;8.70;2.95;;;22.90;99.90;;;;;;5089717;28;20086;-84
2022/08/26 09:23:00;;;;;;;6.55;2.67;;;22.90;99.90;;;;;;5072903;28;20048;-86
2022/08/26 09:25:26;;;;;;;7.13;2.83;;;22.90;99.90;;;;;;5094329;28;20391;-92
2022/08/26 09:27:52;;;;;;;10.15;2.70;;;23.00;99.90;;;;;;5043871;28;20052;-88
2022/08/26 09:30:33;;;;;;;7.00;2.70;;;23.00;99.90;;;;;;5073207;28;20101;-87
2022/08/26 09:33:02;;;;;;;9.15;3.13;;;23.00;99.90;;;;;;5039747;28;20403;-88
2022/08/26 09:35:33;;;;;;;9.77;2.60;;;23.00;99.90;;;;;;5072396;28;20069;-84
2022/08/26 09:37:59;;;;;;;10.20;2.67;;;23.00;99.90;;;;;;5057178;28;20444;-86
2022/08/26 09:40:25;;;;;;;8.98;2.90;;;23.00;99.90;;;;;;5092631;28;20083;-93
2022/08/26 09:43:06;;;;;;;13.98;2.53;;;23.00;99.90;;;;;;5090821;28;20058;-95
2022/08/26 09:45:32;;;;;;;10.38;2.45;;;22.80;99.90;;;;;;5090743;28;20433;-90
2022/08/26 09:47:58;;;;;;;10.75;2.40;;;22.70;99.90;;;;;;5057885;28;20044;-94
2022/08/26 09:50:33;;;;;;;10.13;2.08;;;22.60;99.90;;;;;;5093319;28;20116;-92
2022/08/26 09:53:08;;;;;;;7.50;2.70;;;22.80;99.90;;;;;;5091266;28;20442;-89
2022/08/26 09:55:37;;;;;;;10.93;2.78;;;23.00;99.90;;;;;;5112764;28;20054;-91
2022/08/26 09:58:02;;;;;;;8.82;2.45;;;22.90;99.90;;;;;;5081500;28;20047;-86
2022/08/26 10:00:36;;;;;;;10.05;2.28;;;23.10;99.90;;;;;;5067543;28;20051;-84
2022/08/26 10:03:10;;;;;;;7.25;2.30;;;23.20;99.90;;;;;;5062860;28;20078;-84
2022/08/26 10:05:36;;;;;;;;;;;23.20;99.90;;;;;;5043377;28;20127;-89
2022/08/26 10:08:13;;;;;;;;;;;23.20;99.90;;;;;;5110450;28;20282;-86
2022/08/26 10:10:39;;;;;;;;;;;23.10;99.90;;;;;;5082137;28;19970;-89
2022/08/26 10:13:11;;;;;;;;;;;23.00;99.90;;;;;;5060883;28;19981;-82
2022/08/26 10:16:03;;;;;;;;;;;22.90;99.90;;;;;;5074497;28;19924;-87
2022/08/26 10:18:30;;;;;;;;;;;22.70;99.90;;;;;;5037949;28;19919;-84
2022/08/26 10:20:58;;;;;;;;;;;22.50;99.90;;;;;;5118924;27;19908;-86
2022/08/26 10:23:24;;;;;;;;;;;22.50;99.90;;;;;;5112584;28;19920;-83
2022/08/26 10:25:56;;;;;;;;;;;22.50;99.90;;;;;;5076034;28;20019;-84
2022/08/26 10:28:25;;;;;;;;;;;22.40;99.90;;;;;;5092898;28;19930;-84
2022/08/26 10:30:55;;;;;;;;;;;22.40;99.90;;;;;;5075999;28;20374;-83
2022/08/26 10:33:20;;;;;;;;;;;22.40;99.90;;;;;;5075372;28;20007;-84
2022/08/26 10:35:52;;;;;;;;;;;22.50;99.90;;;;;;5076003;28;19998;-89
2022/08/26 10:38:19;;;;;;;;;;;22.50;99.90;;;;;;5059085;28;20451;-92
2022/08/26 10:40:48;;;;;;;;;;;22.50;99.90;;;;;;5077309;28;19988;-87
2022/08/26 10:43:28;;;;;;;;;;;22.70;99.90;;;;;;5073600;28;20329;-84
2022/08/26 10:46:03;;;;;;;;;;;22.70;99.90;;;;;;5074529;28;19927;-89
2022/08/26 10:48:32;;;;;;;;;;;22.60;99.90;;;;;;5111581;28;20393;-90
2022/08/26 10:50:57;;;;;;;;;;;22.50;99.90;;;;;;5097035;28;19923;-86
2022/08/26 10:53:33;;;;;;;;;;;22.40;99.90;;;;;;5079316;28;19923;-83
2022/08/26 10:56:01;;;;;;;;;;;22.40;99.90;;;;;;5063058;28;19970;-83
2022/08/26 10:58:30;;;;;;;;;;;22.40;99.90;;;;;;5096111;28;19919;-83
2022/08/26 11:01:44;;;;;;;;;;;22.50;99.90;;;;;;5062657;28;20002;-83
2022/08/26 11:04:02;;;;;;;;;;;22.50;99.90;;;;;;5077301;28;20347;-82
2022/08/26 11:06:28;;;;;;;;;;;22.70;99.90;;;;;;5077114;28;19923;-83
2022/08/26 11:08:55;;;;;;;;;;;22.90;99.90;;;;;;5075352;28;19930;-83
2022/08/26 11:11:39;;;;;;;;;;;22.90;99.90;;;;;;5077766;28;19926;-83
2022/08/26 11:14:05;;;;;;;;;;;22.80;99.90;;;;;;5076891;28;19959;-83
2022/08/26 11:16:33;;;;;;;;;;;22.80;99.90;;;;;;5077826;28;19927;-82
2022/08/26 11:18:58;;;;;;;;;;;22.90;99.90;;;;;;5077010;28;20006;-83
2022/08/26 11:21:42;;;;;;;;;;;23.00;99.90;;;;;;5095177;28;19941;-82
2022/08/26 11:24:08;;;;;;;;;;;22.90;99.90;;;;;;5077299;28;19919;-83
2022/08/26 11:26:33;;;;;;;;;;;23.00;99.90;;;;;;5094863;28;20431;-83
2022/08/26 11:28:59;;;;;;;;;;;23.10;99.90;;;;;;5078518;28;19923;-83
2022/08/26 11:31:24;;;;;;;;;;;23.10;99.90;;;;;;5060017;28;19924;-83
2022/08/26 11:33:57;;;;;;;;;;;23.20;99.90;;;;;;5078970;28;20411;-83
2022/08/26 11:36:55;;;;;;;;;;;23.30;99.90;;;;;;5078982;28;20271;-83
2022/08/26 11:39:23;;;;;;;;;;;23.30;99.90;;;;;;5039699;28;19927;-83
2022/08/26 11:41:49;;;;;;;;;;;23.50;99.90;;;;;;5079064;28;20386;-83
2022/08/26 11:44:16;;;;;;;;;;;23.60;99.90;;;;;;5078563;28;20366;-82
2022/08/26 11:46:45;;;;;;;;;;;23.70;99.90;;;;;;5078073;28;20034;-83
2022/08/26 11:49:11;;;;;;;;;;;23.90;99.90;;;;;;5078458;28;19927;-82
2022/08/26 11:51:37;;;;;;;;;;;24.10;99.90;;;;;;5095026;28;19973;-83
2022/08/26 11:54:10;;;;;;;;;;;23.90;99.90;;;;;;5095368;28;19955;-82
2022/08/26 11:56:36;;;;;;;;;;;24.50;99.90;;;;;;5094789;28;20386;-83
2022/08/26 11:59:02;;;;;;;;;;;24.10;99.90;;;;;;5078330;28;19919;-83
2022/08/26 12:01:28;;;;;;;;;;;24.20;99.90;;;;;;5076645;28;19920;-82
2022/08/26 12:03:53;;;;;;;;;;;24.20;99.90;;;;;;5078593;28;20432;-82
2022/08/26 12:06:19;;;;;;;;;;;24.00;99.90;;;;;;5078420;28;19924;-82
2022/08/26 12:08:45;;;;;;;;;;;24.30;99.90;;;;;;5094002;28;20411;-82
2022/08/26 12:11:24;;;;;;;;;;;24.20;99.90;;;;;;5078185;28;19924;-83
2022/08/26 12:13:53;;;;;;;;;;;24.20;99.90;;;;;;5061471;28;19919;-85
2022/08/26 12:16:21;;;;;;;;;;;24.40;99.90;;;;;;5061321;28;19927;-80
2022/08/26 12:18:48;;;;;;;;;;;24.20;99.90;;;;;;5077695;28;19923;-82
2022/08/26 12:21:17;;;;;;;;;;;24.30;99.90;;;;;;5078336;28;19926;-82
2022/08/26 12:23:47;;;;;;;;;;;24.30;99.90;;;;;;5094199;28;19970;-82
2022/08/26 12:26:21;;;;;;;;;;;24.20;99.90;;;;;;5094973;28;19935;-83
2022/08/26 12:28:57;;;;;;;;;;;24.00;99.90;;;;;;5077728;28;19924;-83
2022/08/26 12:31:26;;;;;;;;;;;24.00;99.90;;;;;;5061181;28;19927;-81
2022/08/26 12:33:52;;;;;;;;;;;23.70;99.90;;;;;;5093180;28;19943;-82
2022/08/26 12:36:21;;;;;;;;;;;23.70;99.90;;;;;;5094605;28;19924;-82
2022/08/26 12:38:47;;;;;;;;;;;23.50;99.90;;;;;;5060075;28;19923;-82
2022/08/26 12:41:33;;;;;;;;;;;23.40;99.90;;;;;;5093823;28;19920;-83
2022/08/26 12:43:58;;;;;;;;;;;23.20;99.90;;;;;;5094595;28;20024;-84
2022/08/26 12:46:25;;;;;;;;;;;23.20;99.90;;;;;;5077467;28;20390;-82
2022/08/26 12:48:50;;;;;;;;;;;23.00;99.90;;;;;;5077087;28;19968;-84
2022/08/26 12:51:21;;;;;;;;;;;22.90;99.90;;;;;;5077432;28;20021;-84
2022/08/26 12:53:47;;;;;;;;;;;22.70;99.90;;;;;;5094031;28;19930;-84
2022/08/26 12:56:26;;;;;;;;;;;22.80;99.90;;;;;;5077748;28;20325;-83
2022/08/26 12:59:18;;;;;;;;;;;22.80;99.90;;;;;;5077111;28;19935;-84
2022/08/26 13:01:50;;;;;;;;;;;22.70;99.90;;;;;;5093120;28;19964;-83
2022/08/26 13:04:32;;;;;;;;;;;22.60;99.90;;;;;;5089629;28;19974;-84